sensor_id;sensor_type;location;lat;lon;timestamp;temperature;humidity
11615;DHT22;5863;52.832;4.758;2023-07-09T00:00:31;21.60;99.90
11615;DHT22;5863;52.832;4.758;2023-07-09T00:02:59;21.60;99.90
11615;DHT22;5863;52.832;4.758;2023-07-09T00:05:26;21.50;99.90
11615;DHT22;5863;52.832;4.758;2023-07-09T00:07:52;21.50;99.90
11615;DHT22;5863;52.832;4.758;2023-07-09T00:10:20;21.50;99.90
11615;DHT22;5863;52.832;4.758;2023-07-09T00:12:47;21.50;99.90
11615;DHT22;5863;52.832;4.758;2023-07-09T00:15:15;21.50;99.90
11615;DHT22;5863;52.832;4.758;2023-07-09T00:17:43;21.50;99.90
11615;DHT22;5863;52.832;4.758;2023-07-09T00:20:14;21.40;99.90
11615;DHT22;5863;52.832;4.758;2023-07-09T00:22:42;21.40;99.90
11615;DHT22;5863;52.832;4.758;2023-07-09T00:25:18;21.40;99.90
11615;DHT22;5863;52.832;4.758;2023-07-09T00:27:46;21.40;99.90
11615;DHT22;5863;52.832;4.758;2023-07-09T00:30:17;21.40;99.90
11615;DHT22;5863;52.832;4.758;2023-07-09T00:32:44;21.40;99.90
11615;DHT22;5863;52.832;4.758;2023-07-09T00:35:12;21.30;99.90
11615;DHT22;5863;52.832;4.758;2023-07-09T00:37:41;21.30;99.90
11615;DHT22;5863;52.832;4.758;2023-07-09T00:40:12;21.40;99.90
11615;DHT22;5863;52.832;4.758;2023-07-09T00:42:43;21.30;99.90
11615;DHT22;5863;52.832;4.758;2023-07-09T00:45:18;21.30;99.90
11615;DHT22;5863;52.832;4.758;2023-07-09T00:47:48;21.40;99.90
11615;DHT22;5863;52.832;4.758;2023-07-09T00:50:30;21.30;99.90
11615;DHT22;5863;52.832;4.758;2023-07-09T00:53:02;21.40;99.90
11615;DHT22;5863;52.832;4.758;2023-07-09T00:55:34;21.40;99.90
11615;DHT22;5863;52.832;4.758;2023-07-09T00:58:06;21.30;99.90
11615;DHT22;5863;52.832;4.758;2023-07-09T01:00:36;21.30;99.90
11615;DHT22;5863;52.832;4.758;2023-07-09T01:03:08;21.30;99.90
11615;DHT22;5863;52.832;4.758;2023-07-09T01:05:38;21.30;99.90
11615;DHT22;5863;52.832;4.758;2023-07-09T01:08:06;21.20;99.90
11615;DHT22;5863;52.832;4.758;2023-07-09T01:10:35;21.20;99.90
11615;DHT22;5863;52.832;4.758;2023-07-09T01:13:02;21.10;99.90
11615;DHT22;5863;52.832;4.758;2023-07-09T01:15:29;21.10;99.90
11615;DHT22;5863;52.832;4.758;2023-07-09T01:17:55;21.10;99.90
11615;DHT22;5863;52.832;4.758;2023-07-09T01:20:22;21.10;99.90
11615;DHT22;5863;52.832;4.758;2023-07-09T01:22:51;21.10;99.90
11615;DHT22;5863;52.832;4.758;2023-07-09T01:25:20;21.00;99.90
11615;DHT22;5863;52.832;4.758;2023-07-09T01:27:48;21.00;99.90
11615;DHT22;5863;52.832;4.758;2023-07-09T01:30:22;20.90;99.90
11615;DHT22;5863;52.832;4.758;2023-07-09T01:32:49;20.80;99.90
11615;DHT22;5863;52.832;4.758;2023-07-09T01:35:17;20.90;99.90
11615;DHT22;5863;52.832;4.758;2023-07-09T01:37:44;20.90;99.90
11615;DHT22;5863;52.832;4.758;2023-07-09T01:40:16;20.80;99.90
11615;DHT22;5863;52.832;4.758;2023-07-09T01:42:43;20.80;99.90
11615;DHT22;5863;52.832;4.758;2023-07-09T01:45:10;20.60;99.90
11615;DHT22;5863;52.832;4.758;2023-07-09T01:47:38;20.70;99.90
11615;DHT22;5863;52.832;4.758;2023-07-09T01:50:07;20.70;99.90
11615;DHT22;5863;52.832;4.758;2023-07-09T01:52:37;20.70;99.90
11615;DHT22;5863;52.832;4.758;2023-07-09T01:55:05;20.80;99.90
11615;DHT22;5863;52.832;4.758;2023-07-09T01:57:33;20.80;99.90
11615;DHT22;5863;52.832;4.758;2023-07-09T02:00:02;20.70;99.90
11615;DHT22;5863;52.832;4.758;2023-07-09T02:02:31;20.70;99.90
11615;DHT22;5863;52.832;4.758;2023-07-09T02:04:58;20.70;99.90
11615;DHT22;5863;52.832;4.758;2023-07-09T02:07:26;20.70;99.90
11615;DHT22;5863;52.832;4.758;2023-07-09T02:09:53;20.70;99.90
11615;DHT22;5863;52.832;4.758;2023-07-09T02:12:20;20.80;99.90
11615;DHT22;5863;52.832;4.758;2023-07-09T02:14:48;20.80;99.90
11615;DHT22;5863;52.832;4.758;2023-07-09T02:17:15;20.70;99.90
11615;DHT22;5863;52.832;4.758;2023-07-09T02:19:42;20.70;99.90
11615;DHT22;5863;52.832;4.758;2023-07-09T02:22:10;20.70;99.90
11615;DHT22;5863;52.832;4.758;2023-07-09T02:24:37;20.70;99.90
11615;DHT22;5863;52.832;4.758;2023-07-09T02:27:06;20.70;99.90
11615;DHT22;5863;52.832;4.758;2023-07-09T02:29:35;20.60;99.90
11615;DHT22;5863;52.832;4.758;2023-07-09T02:32:04;20.70;99.90
11615;DHT22;5863;52.832;4.758;2023-07-09T02:34:31;20.60;99.90
11615;DHT22;5863;52.832;4.758;2023-07-09T02:36:59;20.60;99.90
11615;DHT22;5863;52.832;4.758;2023-07-09T02:39:26;20.60;99.90
11615;DHT22;5863;52.832;4.758;2023-07-09T02:41:53;20.60;99.90
11615;DHT22;5863;52.832;4.758;2023-07-09T02:44:19;20.60;99.90
11615;DHT22;5863;52.832;4.758;2023-07-09T02:46:47;20.60;99.90
11615;DHT22;5863;52.832;4.758;2023-07-09T02:49:15;20.60;99.90
11615;DHT22;5863;52.832;4.758;2023-07-09T02:51:42;20.60;99.90
11615;DHT22;5863;52.832;4.758;2023-07-09T02:54:08;20.70;99.90
11615;DHT22;5863;52.832;4.758;2023-07-09T02:56:35;20.60;99.90
11615;DHT22;5863;52.832;4.758;2023-07-09T02:59:02;20.60;99.90
11615;DHT22;5863;52.832;4.758;2023-07-09T03:01:30;20.50;99.90
11615;DHT22;5863;52.832;4.758;2023-07-09T03:04:00;20.50;99.90
11615;DHT22;5863;52.832;4.758;2023-07-09T03:06:29;20.40;99.90
11615;DHT22;5863;52.832;4.758;2023-07-09T03:08:58;20.40;99.90
11615;DHT22;5863;52.832;4.758;2023-07-09T03:11:25;20.40;99.90
11615;DHT22;5863;52.832;4.758;2023-07-09T03:13:51;20.50;99.90
11615;DHT22;5863;52.832;4.758;2023-07-09T03:16:19;20.50;99.90
11615;DHT22;5863;52.832;4.758;2023-07-09T03:18:46;20.40;99.90
11615;DHT22;5863;52.832;4.758;2023-07-09T03:21:12;20.40;99.90
11615;DHT22;5863;52.832;4.758;2023-07-09T03:23:41;20.30;99.90
11615;DHT22;5863;52.832;4.758;2023-07-09T03:26:07;20.40;99.90
11615;DHT22;5863;52.832;4.758;2023-07-09T03:28:34;20.40;99.90
11615;DHT22;5863;52.832;4.758;2023-07-09T03:31:01;20.30;99.90
11615;DHT22;5863;52.832;4.758;2023-07-09T03:33:27;20.30;99.90
11615;DHT22;5863;52.832;4.758;2023-07-09T03:35:54;20.30;99.90
11615;DHT22;5863;52.832;4.758;2023-07-09T03:38:21;20.30;99.90
11615;DHT22;5863;52.832;4.758;2023-07-09T03:40:55;20.30;99.90
11615;DHT22;5863;52.832;4.758;2023-07-09T03:43:22;20.30;99.90
11615;DHT22;5863;52.832;4.758;2023-07-09T03:45:50;20.30;99.90
11615;DHT22;5863;52.832;4.758;2023-07-09T03:48:18;20.30;99.90
11615;DHT22;5863;52.832;4.758;2023-07-09T03:50:47;20.30;99.90
11615;DHT22;5863;52.832;4.758;2023-07-09T03:53:15;20.40;99.90
11615;DHT22;5863;52.832;4.758;2023-07-09T03:55:42;20.40;99.90
11615;DHT22;5863;52.832;4.758;2023-07-09T03:58:10;20.40;99.90
11615;DHT22;5863;52.832;4.758;2023-07-09T04:00:36;20.30;99.90
11615;DHT22;5863;52.832;4.758;2023-07-09T04:03:03;20.40;99.90
11615;DHT22;5863;52.832;4.758;2023-07-09T04:05:33;20.30;99.90
11615;DHT22;5863;52.832;4.758;2023-07-09T04:08:00;20.30;99.90
11615;DHT22;5863;52.832;4.758;2023-07-09T04:10:27;20.30;99.90
11615;DHT22;5863;52.832;4.758;2023-07-09T04:12:53;20.40;99.90
11615;DHT22;5863;52.832;4.758;2023-07-09T04:15:24;20.40;99.90
11615;DHT22;5863;52.832;4.758;2023-07-09T04:17:50;20.40;99.90
11615;DHT22;5863;52.832;4.758;2023-07-09T04:20:17;20.40;99.90
11615;DHT22;5863;52.832;4.758;2023-07-09T04:22:44;20.40;99.90
11615;DHT22;5863;52.832;4.758;2023-07-09T04:25:11;20.40;99.90
11615;DHT22;5863;52.832;4.758;2023-07-09T04:27:39;20.50;99.90
11615;DHT22;5863;52.832;4.758;2023-07-09T04:30:09;20.50;99.90
11615;DHT22;5863;52.832;4.758;2023-07-09T04:32:37;20.50;99.90
11615;DHT22;5863;52.832;4.758;2023-07-09T04:35:05;20.50;99.90
11615;DHT22;5863;52.832;4.758;2023-07-09T04:37:33;20.60;99.90
11615;DHT22;5863;52.832;4.758;2023-07-09T04:39:59;20.60;99.90
11615;DHT22;5863;52.832;4.758;2023-07-09T04:42:27;20.60;99.90
11615;DHT22;5863;52.832;4.758;2023-07-09T04:44:53;20.60;99.90
11615;DHT22;5863;52.832;4.758;2023-07-09T04:47:20;20.70;99.90
11615;DHT22;5863;52.832;4.758;2023-07-09T04:49:48;20.70;99.90
11615;DHT22;5863;52.832;4.758;2023-07-09T04:52:15;20.80;99.90
11615;DHT22;5863;52.832;4.758;2023-07-09T04:54:42;20.90;99.90
11615;DHT22;5863;52.832;4.758;2023-07-09T04:57:09;21.00;99.90
11615;DHT22;5863;52.832;4.758;2023-07-09T04:59:35;21.10;99.90
11615;DHT22;5863;52.832;4.758;2023-07-09T05:02:02;21.20;99.90
11615;DHT22;5863;52.832;4.758;2023-07-09T05:04:29;21.30;99.90
11615;DHT22;5863;52.832;4.758;2023-07-09T05:06:58;21.30;99.90
11615;DHT22;5863;52.832;4.758;2023-07-09T05:09:25;21.40;99.90
11615;DHT22;5863;52.832;4.758;2023-07-09T05:11:52;21.50;99.90
11615;DHT22;5863;52.832;4.758;2023-07-09T05:14:18;21.70;99.90
11615;DHT22;5863;52.832;4.758;2023-07-09T05:16:45;21.90;99.90
11615;DHT22;5863;52.832;4.758;2023-07-09T05:19:13;22.20;99.90
11615;DHT22;5863;52.832;4.758;2023-07-09T05:21:40;22.30;99.90
11615;DHT22;5863;52.832;4.758;2023-07-09T05:24:08;22.40;99.90
11615;DHT22;5863;52.832;4.758;2023-07-09T05:26:34;22.50;99.90
11615;DHT22;5863;52.832;4.758;2023-07-09T05:29:03;22.50;99.90
11615;DHT22;5863;52.832;4.758;2023-07-09T05:31:30;22.60;99.90
11615;DHT22;5863;52.832;4.758;2023-07-09T05:33:58;22.60;99.90
11615;DHT22;5863;52.832;4.758;2023-07-09T05:36:25;22.80;99.90
11615;DHT22;5863;52.832;4.758;2023-07-09T05:38:52;22.90;99.90
11615;DHT22;5863;52.832;4.758;2023-07-09T05:41:20;23.10;99.90
11615;DHT22;5863;52.832;4.758;2023-07-09T05:43:50;23.10;99.90
11615;DHT22;5863;52.832;4.758;2023-07-09T05:46:16;23.20;99.90
11615;DHT22;5863;52.832;4.758;2023-07-09T05:48:43;23.20;99.90
11615;DHT22;5863;52.832;4.758;2023-07-09T05:51:10;23.20;99.90
11615;DHT22;5863;52.832;4.758;2023-07-09T05:53:38;23.30;99.90
11615;DHT22;5863;52.832;4.758;2023-07-09T05:56:05;23.30;99.90
11615;DHT22;5863;52.832;4.758;2023-07-09T05:58:33;23.30;99.90
11615;DHT22;5863;52.832;4.758;2023-07-09T06:01:00;23.40;99.90
11615;DHT22;5863;52.832;4.758;2023-07-09T06:03:28;23.50;99.90
11615;DHT22;5863;52.832;4.758;2023-07-09T06:05:56;23.50;99.90
11615;DHT22;5863;52.832;4.758;2023-07-09T06:08:24;23.60;99.90
11615;DHT22;5863;52.832;4.758;2023-07-09T06:10:53;23.90;99.90
11615;DHT22;5863;52.832;4.758;2023-07-09T06:13:20;24.30;99.90
11615;DHT22;5863;52.832;4.758;2023-07-09T06:15:49;24.50;99.90
11615;DHT22;5863;52.832;4.758;2023-07-09T06:18:16;24.70;99.90
11615;DHT22;5863;52.832;4.758;2023-07-09T06:20:47;25.00;99.90
11615;DHT22;5863;52.832;4.758;2023-07-09T06:23:14;25.30;99.90
11615;DHT22;5863;52.832;4.758;2023-07-09T06:25:40;25.40;99.90
11615;DHT22;5863;52.832;4.758;2023-07-09T06:28:07;25.30;99.90
11615;DHT22;5863;52.832;4.758;2023-07-09T06:30:34;25.30;99.90
11615;DHT22;5863;52.832;4.758;2023-07-09T06:33:02;25.10;99.90
11615;DHT22;5863;52.832;4.758;2023-07-09T06:35:29;25.10;99.90
11615;DHT22;5863;52.832;4.758;2023-07-09T06:37:56;25.20;99.90
11615;DHT22;5863;52.832;4.758;2023-07-09T06:40:22;25.30;99.90
11615;DHT22;5863;52.832;4.758;2023-07-09T06:42:49;25.20;99.90
11615;DHT22;5863;52.832;4.758;2023-07-09T06:45:16;25.10;99.90
11615;DHT22;5863;52.832;4.758;2023-07-09T06:47:43;25.10;99.90
11615;DHT22;5863;52.832;4.758;2023-07-09T06:50:11;25.30;99.90
11615;DHT22;5863;52.832;4.758;2023-07-09T06:52:38;25.50;99.90
11615;DHT22;5863;52.832;4.758;2023-07-09T06:55:05;25.50;99.90
11615;DHT22;5863;52.832;4.758;2023-07-09T06:57:32;25.70;99.90
11615;DHT22;5863;52.832;4.758;2023-07-09T06:59:59;26.00;99.90
11615;DHT22;5863;52.832;4.758;2023-07-09T07:02:26;26.20;99.90
11615;DHT22;5863;52.832;4.758;2023-07-09T07:04:53;26.40;99.90
11615;DHT22;5863;52.832;4.758;2023-07-09T07:07:22;26.50;99.90
11615;DHT22;5863;52.832;4.758;2023-07-09T07:09:48;26.60;99.90
11615;DHT22;5863;52.832;4.758;2023-07-09T07:12:23;26.60;99.90
11615;DHT22;5863;52.832;4.758;2023-07-09T07:14:51;26.70;99.90
11615;DHT22;5863;52.832;4.758;2023-07-09T07:17:18;26.70;99.90
11615;DHT22;5863;52.832;4.758;2023-07-09T07:19:45;26.60;99.90
11615;DHT22;5863;52.832;4.758;2023-07-09T07:22:12;26.70;99.90
11615;DHT22;5863;52.832;4.758;2023-07-09T07:24:40;27.10;99.90
11615;DHT22;5863;52.832;4.758;2023-07-09T07:27:08;27.60;99.90
11615;DHT22;5863;52.832;4.758;2023-07-09T07:29:35;28.10;99.90
11615;DHT22;5863;52.832;4.758;2023-07-09T07:32:01;28.30;99.70
11615;DHT22;5863;52.832;4.758;2023-07-09T07:34:29;28.50;99.30
11615;DHT22;5863;52.832;4.758;2023-07-09T07:36:55;28.90;98.90
11615;DHT22;5863;52.832;4.758;2023-07-09T07:39:22;29.30;98.50
11615;DHT22;5863;52.832;4.758;2023-07-09T07:41:50;29.70;97.80
11615;DHT22;5863;52.832;4.758;2023-07-09T07:44:17;29.90;97.20
11615;DHT22;5863;52.832;4.758;2023-07-09T07:46:44;29.90;97.10
11615;DHT22;5863;52.832;4.758;2023-07-09T07:49:11;30.00;96.40
11615;DHT22;5863;52.832;4.758;2023-07-09T07:51:37;30.00;96.30
11615;DHT22;5863;52.832;4.758;2023-07-09T07:54:05;29.90;95.70
11615;DHT22;5863;52.832;4.758;2023-07-09T07:56:32;29.70;96.30
11615;DHT22;5863;52.832;4.758;2023-07-09T07:59:00;29.70;96.60
11615;DHT22;5863;52.832;4.758;2023-07-09T08:01:26;29.80;96.60
11615;DHT22;5863;52.832;4.758;2023-07-09T08:03:53;29.90;96.40
11615;DHT22;5863;52.832;4.758;2023-07-09T08:06:20;30.10;95.90
11615;DHT22;5863;52.832;4.758;2023-07-09T08:08:47;30.50;95.30
11615;DHT22;5863;52.832;4.758;2023-07-09T08:11:14;30.70;95.00
11615;DHT22;5863;52.832;4.758;2023-07-09T08:13:41;30.80;94.70
11615;DHT22;5863;52.832;4.758;2023-07-09T08:16:09;30.90;94.30
11615;DHT22;5863;52.832;4.758;2023-07-09T08:18:37;30.80;94.20
11615;DHT22;5863;52.832;4.758;2023-07-09T08:21:04;30.80;94.30
11615;DHT22;5863;52.832;4.758;2023-07-09T08:23:31;30.70;94.40
11615;DHT22;5863;52.832;4.758;2023-07-09T08:26:00;30.60;94.60
11615;DHT22;5863;52.832;4.758;2023-07-09T08:28:28;30.60;94.80
11615;DHT22;5863;52.832;4.758;2023-07-09T08:30:56;30.40;94.90
11615;DHT22;5863;52.832;4.758;2023-07-09T08:33:24;30.40;95.00
11615;DHT22;5863;52.832;4.758;2023-07-09T08:35:52;30.20;94.90
11615;DHT22;5863;52.832;4.758;2023-07-09T08:38:19;30.00;95.30
11615;DHT22;5863;52.832;4.758;2023-07-09T08:40:53;29.90;95.40
11615;DHT22;5863;52.832;4.758;2023-07-09T08:43:35;29.70;95.80
11615;DHT22;5863;52.832;4.758;2023-07-09T08:46:10;29.70;96.10
11615;DHT22;5863;52.832;4.758;2023-07-09T08:48:45;29.60;96.20
11615;DHT22;5863;52.832;4.758;2023-07-09T08:51:15;29.50;95.70
11615;DHT22;5863;52.832;4.758;2023-07-09T08:53:48;29.40;96.00
11615;DHT22;5863;52.832;4.758;2023-07-09T08:56:16;29.20;96.60
11615;DHT22;5863;52.832;4.758;2023-07-09T08:58:45;29.00;96.40
11615;DHT22;5863;52.832;4.758;2023-07-09T09:01:18;29.00;96.50
11615;DHT22;5863;52.832;4.758;2023-07-09T09:03:48;28.90;96.90
11615;DHT22;5863;52.832;4.758;2023-07-09T09:06:19;28.70;96.90
11615;DHT22;5863;52.832;4.758;2023-07-09T09:08:55;28.80;96.50
11615;DHT22;5863;52.832;4.758;2023-07-09T09:11:31;28.80;96.30
11615;DHT22;5863;52.832;4.758;2023-07-09T09:14:18;28.80;96.40
11615;DHT22;5863;52.832;4.758;2023-07-09T09:16:46;28.80;95.90
11615;DHT22;5863;52.832;4.758;2023-07-09T09:19:20;28.80;95.90
11615;DHT22;5863;52.832;4.758;2023-07-09T09:21:51;28.70;95.80
11615;DHT22;5863;52.832;4.758;2023-07-09T09:24:27;28.80;96.40
11615;DHT22;5863;52.832;4.758;2023-07-09T09:26:58;28.90;96.50
11615;DHT22;5863;52.832;4.758;2023-07-09T09:29:25;28.90;96.30
11615;DHT22;5863;52.832;4.758;2023-07-09T09:31:55;29.00;96.10
11615;DHT22;5863;52.832;4.758;2023-07-09T09:34:26;29.10;95.20
11615;DHT22;5863;52.832;4.758;2023-07-09T09:36:54;29.00;95.10
11615;DHT22;5863;52.832;4.758;2023-07-09T09:39:22;28.90;95.50
11615;DHT22;5863;52.832;4.758;2023-07-09T09:41:52;29.00;96.10
11615;DHT22;5863;52.832;4.758;2023-07-09T09:44:23;29.00;96.00
11615;DHT22;5863;52.832;4.758;2023-07-09T09:46:50;29.00;95.60
11615;DHT22;5863;52.832;4.758;2023-07-09T09:49:18;28.80;95.30
11615;DHT22;5863;52.832;4.758;2023-07-09T09:51:47;28.70;95.50
11615;DHT22;5863;52.832;4.758;2023-07-09T09:54:17;28.80;95.40
11615;DHT22;5863;52.832;4.758;2023-07-09T09:56:44;28.80;95.70
11615;DHT22;5863;52.832;4.758;2023-07-09T09:59:18;28.80;96.10
11615;DHT22;5863;52.832;4.758;2023-07-09T10:01:45;28.90;95.90
11615;DHT22;5863;52.832;4.758;2023-07-09T10:04:16;28.80;95.50
11615;DHT22;5863;52.832;4.758;2023-07-09T10:06:48;28.80;95.70
11615;DHT22;5863;52.832;4.758;2023-07-09T10:09:24;28.80;95.40
11615;DHT22;5863;52.832;4.758;2023-07-09T10:11:57;28.70;95.30
11615;DHT22;5863;52.832;4.758;2023-07-09T10:14:40;28.60;95.60
11615;DHT22;5863;52.832;4.758;2023-07-09T10:17:15;28.50;96.10
11615;DHT22;5863;52.832;4.758;2023-07-09T10:19:50;28.60;96.60
11615;DHT22;5863;52.832;4.758;2023-07-09T10:22:34;28.60;96.80
11615;DHT22;5863;52.832;4.758;2023-07-09T10:25:12;28.60;96.90
11615;DHT22;5863;52.832;4.758;2023-07-09T10:27:57;28.60;96.90
11615;DHT22;5863;52.832;4.758;2023-07-09T10:30:39;28.60;96.00
11615;DHT22;5863;52.832;4.758;2023-07-09T10:33:09;28.60;96.20
11615;DHT22;5863;52.832;4.758;2023-07-09T10:35:43;28.60;96.30
11615;DHT22;5863;52.832;4.758;2023-07-09T10:38:22;28.60;96.10
11615;DHT22;5863;52.832;4.758;2023-07-09T10:40:54;28.70;96.10
11615;DHT22;5863;52.832;4.758;2023-07-09T10:43:35;28.70;96.20
11615;DHT22;5863;52.832;4.758;2023-07-09T10:46:07;28.70;96.20
11615;DHT22;5863;52.832;4.758;2023-07-09T10:48:39;28.70;96.00
11615;DHT22;5863;52.832;4.758;2023-07-09T10:51:15;28.60;95.80
11615;DHT22;5863;52.832;4.758;2023-07-09T10:53:46;28.60;96.20
11615;DHT22;5863;52.832;4.758;2023-07-09T10:56:19;28.60;96.60
11615;DHT22;5863;52.832;4.758;2023-07-09T10:58:50;28.70;95.70
11615;DHT22;5863;52.832;4.758;2023-07-09T11:01:24;28.70;95.80
11615;DHT22;5863;52.832;4.758;2023-07-09T11:03:54;28.80;96.30
11615;DHT22;5863;52.832;4.758;2023-07-09T11:06:27;28.80;95.90
11615;DHT22;5863;52.832;4.758;2023-07-09T11:08:57;28.80;95.80
11615;DHT22;5863;52.832;4.758;2023-07-09T11:11:34;28.80;95.60
11615;DHT22;5863;52.832;4.758;2023-07-09T11:14:04;28.90;95.00
11615;DHT22;5863;52.832;4.758;2023-07-09T11:16:37;28.80;95.20
11615;DHT22;5863;52.832;4.758;2023-07-09T11:19:06;29.00;95.50
11615;DHT22;5863;52.832;4.758;2023-07-09T11:21:32;29.00;95.60
11615;DHT22;5863;52.832;4.758;2023-07-09T11:24:01;29.10;95.50
11615;DHT22;5863;52.832;4.758;2023-07-09T11:26:30;29.10;95.50
11615;DHT22;5863;52.832;4.758;2023-07-09T11:29:13;29.20;95.90
11615;DHT22;5863;52.832;4.758;2023-07-09T11:31:42;29.20;95.80
11615;DHT22;5863;52.832;4.758;2023-07-09T11:34:15;29.10;95.50
11615;DHT22;5863;52.832;4.758;2023-07-09T11:36:47;29.10;95.50
11615;DHT22;5863;52.832;4.758;2023-07-09T11:39:21;29.10;95.00
11615;DHT22;5863;52.832;4.758;2023-07-09T11:41:48;29.00;94.90
11615;DHT22;5863;52.832;4.758;2023-07-09T11:44:17;29.00;95.10
11615;DHT22;5863;52.832;4.758;2023-07-09T11:46:58;29.00;95.40
11615;DHT22;5863;52.832;4.758;2023-07-09T11:49:32;29.00;95.40
11615;DHT22;5863;52.832;4.758;2023-07-09T11:52:02;29.00;95.40
11615;DHT22;5863;52.832;4.758;2023-07-09T11:54:35;28.90;95.70
11615;DHT22;5863;52.832;4.758;2023-07-09T11:57:07;28.80;95.80
11615;DHT22;5863;52.832;4.758;2023-07-09T11:59:38;28.80;96.30
11615;DHT22;5863;52.832;4.758;2023-07-09T12:02:06;28.80;96.90
11615;DHT22;5863;52.832;4.758;2023-07-09T12:04:39;28.60;97.10
11615;DHT22;5863;52.832;4.758;2023-07-09T12:07:09;28.40;96.70
11615;DHT22;5863;52.832;4.758;2023-07-09T12:09:46;28.20;96.70
11615;DHT22;5863;52.832;4.758;2023-07-09T12:12:19;28.10;97.00
11615;DHT22;5863;52.832;4.758;2023-07-09T12:14:48;28.10;97.20
11615;DHT22;5863;52.832;4.758;2023-07-09T12:17:15;28.20;97.20
11615;DHT22;5863;52.832;4.758;2023-07-09T12:19:41;28.30;97.30
11615;DHT22;5863;52.832;4.758;2023-07-09T12:22:20;28.50;97.00
11615;DHT22;5863;52.832;4.758;2023-07-09T12:24:50;28.50;97.00
11615;DHT22;5863;52.832;4.758;2023-07-09T12:27:23;28.60;96.80
11615;DHT22;5863;52.832;4.758;2023-07-09T12:29:53;28.60;96.20
11615;DHT22;5863;52.832;4.758;2023-07-09T12:32:20;28.60;96.50
11615;DHT22;5863;52.832;4.758;2023-07-09T12:34:50;28.60;96.70
11615;DHT22;5863;52.832;4.758;2023-07-09T12:37:18;28.60;96.70
11615;DHT22;5863;52.832;4.758;2023-07-09T12:39:48;28.50;97.10
11615;DHT22;5863;52.832;4.758;2023-07-09T12:42:19;28.40;97.20
11615;DHT22;5863;52.832;4.758;2023-07-09T12:44:46;28.20;97.40
11615;DHT22;5863;52.832;4.758;2023-07-09T12:47:14;28.00;97.60
11615;DHT22;5863;52.832;4.758;2023-07-09T12:49:44;27.80;97.80
11615;DHT22;5863;52.832;4.758;2023-07-09T12:52:16;27.70;97.90
11615;DHT22;5863;52.832;4.758;2023-07-09T12:54:53;27.60;98.00
11615;DHT22;5863;52.832;4.758;2023-07-09T12:57:21;27.40;98.70
11615;DHT22;5863;52.832;4.758;2023-07-09T12:59:49;27.30;99.50
11615;DHT22;5863;52.832;4.758;2023-07-09T13:02:18;27.30;99.60
11615;DHT22;5863;52.832;4.758;2023-07-09T13:04:45;27.10;99.60
11615;DHT22;5863;52.832;4.758;2023-07-09T13:07:26;26.90;99.80
11615;DHT22;5863;52.832;4.758;2023-07-09T13:09:55;26.70;99.90
11615;DHT22;5863;52.832;4.758;2023-07-09T13:12:29;26.40;99.90
11615;DHT22;5863;52.832;4.758;2023-07-09T13:14:56;26.30;99.90
11615;DHT22;5863;52.832;4.758;2023-07-09T13:17:27;26.20;99.90
11615;DHT22;5863;52.832;4.758;2023-07-09T13:19:54;26.00;99.90
11615;DHT22;5863;52.832;4.758;2023-07-09T13:22:22;25.80;99.90
11615;DHT22;5863;52.832;4.758;2023-07-09T13:24:49;25.60;99.90
11615;DHT22;5863;52.832;4.758;2023-07-09T13:27:17;25.50;99.90
11615;DHT22;5863;52.832;4.758;2023-07-09T13:29:44;25.40;99.90
11615;DHT22;5863;52.832;4.758;2023-07-09T13:32:14;25.20;99.90
11615;DHT22;5863;52.832;4.758;2023-07-09T13:34:42;25.10;99.90
11615;DHT22;5863;52.832;4.758;2023-07-09T13:37:11;25.00;99.90
11615;DHT22;5863;52.832;4.758;2023-07-09T13:39:38;24.90;99.90
11615;DHT22;5863;52.832;4.758;2023-07-09T13:42:10;24.70;99.90
11615;DHT22;5863;52.832;4.758;2023-07-09T13:44:39;24.60;99.90
11615;DHT22;5863;52.832;4.758;2023-07-09T13:47:11;24.50;99.90
11615;DHT22;5863;52.832;4.758;2023-07-09T13:49:40;24.50;99.90
11615;DHT22;5863;52.832;4.758;2023-07-09T13:52:14;24.50;99.90
11615;DHT22;5863;52.832;4.758;2023-07-09T13:54:41;24.50;99.90
11615;DHT22;5863;52.832;4.758;2023-07-09T13:57:13;24.40;99.90
11615;DHT22;5863;52.832;4.758;2023-07-09T13:59:42;24.40;99.90
11615;DHT22;5863;52.832;4.758;2023-07-09T14:02:19;24.30;99.90
11615;DHT22;5863;52.832;4.758;2023-07-09T14:04:47;24.30;99.90
11615;DHT22;5863;52.832;4.758;2023-07-09T14:07:24;24.30;99.90
11615;DHT22;5863;52.832;4.758;2023-07-09T14:09:51;24.30;99.90
11615;DHT22;5863;52.832;4.758;2023-07-09T14:12:19;24.30;99.90
11615;DHT22;5863;52.832;4.758;2023-07-09T14:14:49;24.30;99.90
11615;DHT22;5863;52.832;4.758;2023-07-09T14:17:17;24.20;99.90
11615;DHT22;5863;52.832;4.758;2023-07-09T14:19:44;24.10;99.90
11615;DHT22;5863;52.832;4.758;2023-07-09T14:22:21;24.10;99.90
11615;DHT22;5863;52.832;4.758;2023-07-09T14:24:49;24.00;99.90
11615;DHT22;5863;52.832;4.758;2023-07-09T14:27:17;24.00;99.90
11615;DHT22;5863;52.832;4.758;2023-07-09T14:29:44;23.80;99.90
11615;DHT22;5863;52.832;4.758;2023-07-09T14:32:35;23.80;99.90
11615;DHT22;5863;52.832;4.758;2023-07-09T14:35:05;23.80;99.90
11615;DHT22;5863;52.832;4.758;2023-07-09T14:37:35;23.90;99.90
11615;DHT22;5863;52.832;4.758;2023-07-09T14:40:03;23.90;99.90
11615;DHT22;5863;52.832;4.758;2023-07-09T14:42:32;24.00;99.90
11615;DHT22;5863;52.832;4.758;2023-07-09T14:44:59;24.10;99.90
11615;DHT22;5863;52.832;4.758;2023-07-09T14:47:27;24.00;99.90
11615;DHT22;5863;52.832;4.758;2023-07-09T14:49:54;24.10;99.90
11615;DHT22;5863;52.832;4.758;2023-07-09T14:52:21;24.10;99.90
11615;DHT22;5863;52.832;4.758;2023-07-09T14:54:48;24.10;99.90
11615;DHT22;5863;52.832;4.758;2023-07-09T14:57:19;24.00;99.90
11615;DHT22;5863;52.832;4.758;2023-07-09T14:59:46;23.90;99.90
11615;DHT22;5863;52.832;4.758;2023-07-09T15:02:22;23.90;99.90
11615;DHT22;5863;52.832;4.758;2023-07-09T15:04:51;23.80;99.90
11615;DHT22;5863;52.832;4.758;2023-07-09T15:07:17;23.70;99.90
11615;DHT22;5863;52.832;4.758;2023-07-09T15:09:45;23.60;99.90
11615;DHT22;5863;52.832;4.758;2023-07-09T15:12:16;23.50;99.90
11615;DHT22;5863;52.832;4.758;2023-07-09T15:14:44;23.40;99.90
11615;DHT22;5863;52.832;4.758;2023-07-09T15:17:12;23.20;99.90
11615;DHT22;5863;52.832;4.758;2023-07-09T15:19:44;23.20;99.90
11615;DHT22;5863;52.832;4.758;2023-07-09T15:22:26;23.10;99.90
11615;DHT22;5863;52.832;4.758;2023-07-09T15:24:54;23.10;99.90
11615;DHT22;5863;52.832;4.758;2023-07-09T15:27:20;23.00;99.90
11615;DHT22;5863;52.832;4.758;2023-07-09T15:29:47;22.90;99.90
11615;DHT22;5863;52.832;4.758;2023-07-09T15:32:15;22.90;99.90
11615;DHT22;5863;52.832;4.758;2023-07-09T15:34:42;22.80;99.90
11615;DHT22;5863;52.832;4.758;2023-07-09T15:37:12;22.70;99.90
11615;DHT22;5863;52.832;4.758;2023-07-09T15:39:41;22.60;99.90
11615;DHT22;5863;52.832;4.758;2023-07-09T15:42:11;22.60;99.90
11615;DHT22;5863;52.832;4.758;2023-07-09T15:44:38;22.50;99.90
11615;DHT22;5863;52.832;4.758;2023-07-09T15:47:05;22.50;99.90
11615;DHT22;5863;52.832;4.758;2023-07-09T15:49:35;22.40;99.90
11615;DHT22;5863;52.832;4.758;2023-07-09T15:52:02;22.40;99.90
11615;DHT22;5863;52.832;4.758;2023-07-09T15:54:29;22.30;99.90
11615;DHT22;5863;52.832;4.758;2023-07-09T15:56:57;22.40;99.90